createdAt,value
2019-06-26T00:00:55.127Z,21.37
2019-06-26T00:03:24.774Z,21.17
2019-06-26T00:05:54.290Z,18.80
2019-06-26T00:08:23.747Z,19.98
2019-06-26T00:10:53.230Z,19.17
2019-06-26T00:13:26.618Z,19.82
2019-06-26T00:15:53.824Z,20.17
2019-06-26T00:18:24.373Z,17.50
2019-06-26T00:20:53.827Z,19.35
2019-06-26T00:23:23.280Z,18.77
2019-06-26T00:25:53.176Z,17.92
2019-06-26T00:28:22.661Z,20.85
2019-06-26T00:30:52.093Z,20.05
2019-06-26T00:33:21.555Z,20.48
2019-06-26T00:35:52.461Z,20.97
2019-06-26T00:38:21.947Z,21.20
2019-06-26T00:40:51.391Z,21.23
2019-06-26T00:43:20.844Z,22.17
2019-06-26T00:45:50.303Z,21.45
2019-06-26T00:48:19.771Z,22.17
2019-06-26T00:50:49.312Z,21.65
2019-06-26T00:53:18.750Z,21.25
2019-06-26T00:55:48.228Z,19.40
2019-06-26T00:58:17.686Z,22.22
2019-06-26T01:00:51.595Z,22.22
2019-06-26T01:03:21.069Z,23.05
2019-06-26T01:05:50.526Z,23.05
2019-06-26T01:08:19.982Z,23.32
2019-06-26T01:10:49.452Z,21.70
2019-06-26T01:13:18.898Z,25.15
2019-06-26T01:15:48.453Z,22.90
2019-06-26T01:18:17.924Z,23.35
2019-06-26T01:20:47.840Z,24.40
2019-06-26T01:23:17.940Z,24.47
2019-06-26T01:25:47.401Z,23.20
2019-06-26T01:28:17.906Z,23.38
2019-06-26T01:30:47.355Z,22.07
2019-06-26T01:33:16.835Z,25.05
2019-06-26T01:35:46.274Z,25.82
2019-06-26T01:38:15.726Z,24.02
2019-06-26T01:40:45.195Z,23.50
2019-06-26T01:43:14.670Z,24.43
2019-06-26T01:45:44.115Z,25.08
2019-06-26T01:48:13.553Z,23.80
2019-06-26T01:50:42.982Z,22.73
2019-06-26T01:53:13.379Z,26.00
2019-06-26T01:55:43.890Z,21.60
2019-06-26T01:58:13.354Z,25.85
2019-06-26T02:00:42.738Z,24.43
2019-06-26T02:03:12.270Z,23.47
2019-06-26T02:05:41.750Z,23.35
2019-06-26T02:08:11.303Z,22.60
2019-06-26T02:10:40.764Z,23.83
2019-06-26T02:13:10.209Z,22.37
2019-06-26T02:15:39.826Z,24.75
2019-06-26T02:18:28.686Z,21.02
2019-06-26T02:20:58.310Z,23.15
2019-06-26T02:23:27.811Z,20.82
2019-06-26T02:25:57.341Z,22.05
2019-06-26T02:28:26.817Z,22.40
2019-06-26T02:30:56.279Z,21.97
2019-06-26T02:33:25.755Z,19.02
2019-06-26T02:36:14.537Z,20.20
2019-06-26T02:38:43.992Z,18.07
2019-06-26T02:41:13.434Z,18.48
2019-06-26T02:43:43.000Z,16.97
2019-06-26T02:46:12.437Z,17.50
2019-06-26T02:48:41.967Z,18.45
2019-06-26T02:51:11.440Z,18.40
2019-06-26T02:53:40.957Z,16.62
2019-06-26T02:56:10.413Z,17.62
2019-06-26T02:58:39.875Z,17.17
2019-06-26T03:01:09.354Z,19.20
2019-06-26T03:03:38.802Z,18.52
2019-06-26T03:06:08.343Z,18.27
2019-06-26T03:08:37.789Z,18.20
2019-06-26T03:11:07.234Z,17.90
2019-06-26T03:13:36.703Z,18.95
2019-06-26T03:16:07.222Z,20.17
2019-06-26T03:18:36.761Z,21.15
2019-06-26T03:21:06.208Z,18.02
2019-06-26T03:23:35.654Z,20.68
2019-06-26T03:26:05.187Z,20.62
2019-06-26T03:28:34.768Z,20.32
2019-06-26T03:31:04.535Z,22.52
2019-06-26T03:33:33.993Z,19.75
2019-06-26T03:36:03.438Z,19.48
2019-06-26T03:38:32.899Z,21.27
2019-06-26T03:41:02.382Z,20.70
2019-06-26T03:43:35.203Z,20.37
2019-06-26T03:46:02.912Z,21.00
2019-06-26T03:48:44.906Z,20.92
2019-06-26T03:51:18.119Z,19.60
2019-06-26T03:53:47.573Z,18.35
2019-06-26T03:56:17.011Z,19.80
2019-06-26T03:58:46.478Z,19.45
2019-06-26T04:01:15.944Z,20.12
2019-06-26T04:03:45.396Z,18.48
2019-06-26T04:06:14.842Z,19.42
2019-06-26T04:08:44.297Z,20.05
2019-06-26T04:11:13.759Z,20.60
2019-06-26T04:13:43.197Z,20.43
2019-06-26T04:16:12.646Z,21.00
2019-06-26T04:18:42.103Z,19.07
2019-06-26T04:21:11.549Z,20.97
2019-06-26T04:23:40.991Z,18.67
2019-06-26T04:26:10.388Z,17.73
2019-06-26T04:28:39.846Z,20.55
2019-06-26T04:31:09.301Z,19.65
2019-06-26T04:33:38.753Z,18.98
2019-06-26T04:36:08.220Z,17.55
2019-06-26T04:38:37.655Z,20.92
2019-06-26T04:41:14.458Z,18.62
2019-06-26T04:43:43.894Z,19.15
2019-06-26T04:46:14.737Z,16.97
2019-06-26T04:48:44.170Z,23.05
2019-06-26T04:51:13.543Z,19.52
2019-06-26T04:53:43.023Z,19.98
2019-06-26T04:56:12.447Z,22.27
2019-06-26T04:58:41.909Z,19.30
2019-06-26T05:01:11.367Z,19.85
2019-06-26T05:03:40.804Z,20.17
2019-06-26T05:06:29.607Z,20.43
2019-06-26T05:08:59.061Z,20.60
2019-06-26T05:11:28.530Z,21.45
2019-06-26T05:13:58.012Z,20.15
2019-06-26T05:16:27.455Z,21.85
2019-06-26T05:19:16.261Z,21.33
2019-06-26T05:21:45.723Z,22.07
2019-06-26T05:24:15.189Z,21.90
2019-06-26T05:26:44.631Z,20.10
2019-06-26T05:29:14.086Z,19.62
2019-06-26T05:31:43.597Z,21.27
2019-06-26T05:34:13.062Z,21.45
2019-06-26T05:36:42.567Z,21.60
2019-06-26T05:39:15.428Z,23.12
2019-06-26T05:41:44.862Z,22.97
2019-06-26T05:44:14.590Z,20.82
2019-06-26T05:46:44.044Z,21.10
2019-06-26T05:49:13.507Z,19.45
2019-06-26T05:51:42.874Z,23.05
2019-06-26T05:54:12.280Z,22.07
2019-06-26T05:56:44.466Z,21.10
2019-06-26T05:59:12.863Z,19.40
2019-06-26T06:01:49.884Z,20.48
2019-06-26T06:04:29.078Z,20.00
2019-06-26T06:06:58.535Z,19.67
2019-06-26T06:09:28.001Z,21.10
2019-06-26T06:11:57.451Z,21.68
2019-06-26T06:14:39.569Z,20.72
2019-06-26T06:17:09.019Z,21.65
2019-06-26T06:19:38.473Z,22.45
2019-06-26T06:22:07.942Z,19.75
2019-06-26T06:24:37.490Z,22.70
2019-06-26T06:27:07.010Z,22.02
2019-06-26T06:29:36.454Z,21.55
2019-06-26T06:32:25.249Z,22.93
2019-06-26T06:34:54.706Z,24.92
2019-06-26T06:37:24.253Z,22.50
2019-06-26T06:39:53.712Z,21.95
2019-06-26T06:42:23.198Z,22.65
2019-06-26T06:44:52.731Z,21.60
2019-06-26T06:47:22.208Z,22.40
2019-06-26T06:49:51.631Z,21.82
2019-06-26T06:52:21.319Z,20.45
2019-06-26T06:54:50.783Z,20.82
2019-06-26T06:57:21.618Z,19.62
2019-06-26T06:59:51.075Z,19.48
2019-06-26T07:02:20.542Z,19.85
2019-06-26T07:04:49.982Z,19.80
2019-06-26T07:07:19.529Z,19.02
2019-06-26T07:09:48.982Z,19.27
2019-06-26T07:12:20.770Z,16.60
2019-06-26T07:14:49.579Z,18.02
2019-06-26T07:17:21.131Z,17.90
2019-06-26T07:19:50.225Z,17.92
2019-06-26T07:22:20.603Z,21.15
2019-06-26T07:24:53.114Z,19.67
2019-06-26T07:27:22.589Z,19.85
2019-06-26T07:30:11.441Z,20.37
2019-06-26T07:32:40.842Z,18.80
2019-06-26T07:35:10.365Z,18.07
2019-06-26T07:37:39.829Z,19.85
2019-06-26T07:40:09.610Z,20.43
2019-06-26T07:42:39.079Z,20.00
2019-06-26T07:45:08.979Z,18.90
2019-06-26T07:47:43.474Z,19.70
2019-06-26T07:50:10.129Z,17.98
2019-06-26T07:52:39.569Z,19.12
2019-06-26T07:55:12.135Z,17.10
2019-06-26T07:57:40.901Z,17.48
2019-06-26T08:00:10.742Z,19.23
2019-06-26T08:02:40.181Z,17.17
2019-06-26T08:05:10.062Z,17.80
2019-06-26T08:07:39.606Z,17.98
2019-06-26T08:10:10.402Z,17.52
2019-06-26T08:12:40.634Z,19.65
2019-06-26T08:15:10.612Z,18.12
2019-06-26T08:17:41.134Z,17.73
2019-06-26T08:20:10.617Z,17.15
2019-06-26T08:22:40.059Z,18.73
2019-06-26T08:25:10.159Z,16.70
2019-06-26T08:27:40.980Z,17.77
2019-06-26T08:30:10.732Z,19.25
2019-06-26T08:32:40.297Z,19.10
2019-06-26T08:35:10.945Z,20.02
2019-06-26T08:38:08.992Z,20.27
2019-06-26T08:40:23.894Z,19.85
2019-06-26T08:42:59.281Z,20.50
2019-06-26T08:45:28.851Z,20.00
2019-06-26T08:47:58.298Z,19.75
2019-06-26T08:50:32.581Z,17.67
2019-06-26T08:53:03.277Z,19.75
2019-06-26T08:55:32.735Z,16.93
2019-06-26T08:58:03.669Z,17.07
2019-06-26T09:00:33.963Z,19.07
2019-06-26T09:03:09.177Z,16.20
2019-06-26T09:05:47.862Z,17.67
2019-06-26T09:08:13.683Z,16.85
2019-06-26T09:10:45.103Z,17.30
2019-06-26T09:13:14.271Z,16.10
2019-06-26T09:15:43.984Z,16.93
2019-06-26T09:18:13.430Z,19.32
2019-06-26T09:20:43.027Z,18.48
2019-06-26T09:23:31.841Z,18.45
2019-06-26T09:26:01.293Z,18.32
2019-06-26T09:28:30.720Z,18.45
2019-06-26T09:31:12.522Z,18.07
2019-06-26T09:33:45.837Z,17.90
2019-06-26T09:36:16.383Z,20.02
2019-06-26T09:38:45.818Z,21.20
2019-06-26T09:41:15.271Z,19.02
2019-06-26T09:43:44.758Z,19.40
2019-06-26T09:46:15.284Z,16.40
2019-06-26T09:48:52.841Z,18.48
2019-06-26T09:51:16.115Z,19.60
2019-06-26T09:53:47.659Z,19.87
2019-06-26T09:56:16.624Z,18.98
2019-06-26T09:58:46.055Z,19.15
2019-06-26T10:01:15.517Z,19.77
2019-06-26T10:03:45.419Z,20.12
2019-06-26T10:06:14.940Z,19.00
2019-06-26T10:08:44.529Z,19.23
2019-06-26T10:11:20.788Z,19.82
2019-06-26T10:13:50.238Z,20.90
2019-06-26T10:16:19.795Z,19.52
2019-06-26T10:18:49.271Z,20.12
2019-06-26T10:21:18.768Z,19.07
2019-06-26T10:24:08.156Z,19.25
2019-06-26T10:26:38.711Z,18.98
2019-06-26T10:29:08.229Z,19.12
2019-06-26T10:31:37.746Z,19.23
2019-06-26T10:34:10.027Z,20.32
2019-06-26T10:36:38.263Z,20.50
2019-06-26T10:39:08.563Z,19.60
2019-06-26T10:41:38.093Z,20.68
2019-06-26T10:44:07.615Z,19.00
2019-06-26T10:46:37.108Z,19.45
2019-06-26T10:49:06.650Z,19.17
2019-06-26T10:51:36.082Z,19.37
2019-06-26T10:54:06.552Z,19.85
2019-06-26T10:56:36.007Z,17.73
2019-06-26T10:59:06.182Z,19.55
2019-06-26T11:01:36.084Z,20.57
2019-06-26T11:04:05.618Z,18.80
2019-06-26T11:06:37.168Z,19.37
2019-06-26T11:09:08.434Z,19.32
2019-06-26T11:11:37.914Z,19.82
2019-06-26T11:14:07.415Z,18.73
2019-06-26T11:16:36.868Z,19.35
2019-06-26T11:19:06.402Z,17.62
2019-06-26T11:21:35.914Z,17.23
2019-06-26T11:24:05.441Z,15.90
2019-06-26T11:26:34.975Z,16.17
2019-06-26T11:29:04.551Z,17.40
2019-06-26T11:31:35.636Z,16.35
2019-06-26T11:34:06.618Z,15.15
2019-06-26T11:36:36.143Z,16.67
2019-06-26T11:39:07.535Z,17.82
2019-06-26T11:41:36.976Z,17.15
2019-06-26T11:44:06.586Z,15.45
2019-06-26T11:46:48.210Z,16.57
2019-06-26T11:49:29.430Z,17.02
2019-06-26T11:51:58.903Z,18.17
2019-06-26T11:54:28.654Z,17.42
2019-06-26T11:56:58.186Z,17.95
2019-06-26T11:59:27.734Z,15.78
2019-06-26T12:01:57.183Z,17.05
2019-06-26T12:04:26.650Z,18.20
2019-06-26T12:06:56.084Z,16.80
2019-06-26T12:09:26.522Z,16.80
2019-06-26T12:11:56.015Z,16.12
2019-06-26T12:14:25.466Z,14.83
2019-06-26T12:16:54.958Z,14.63
2019-06-26T12:19:24.408Z,14.15
2019-06-26T12:21:55.348Z,15.23
2019-06-26T12:24:26.626Z,14.20
2019-06-26T12:26:55.867Z,13.20
2019-06-26T12:29:28.089Z,12.93
2019-06-26T12:31:57.545Z,13.00
2019-06-26T12:34:26.993Z,13.60
2019-06-26T12:36:56.450Z,13.25
2019-06-26T12:39:46.219Z,11.78
2019-06-26T12:42:15.664Z,10.95
2019-06-26T12:44:45.221Z,10.45
2019-06-26T12:47:14.741Z,10.93
2019-06-26T12:49:44.192Z,11.15
2019-06-26T12:52:16.862Z,12.47
2019-06-26T12:54:44.830Z,10.13
2019-06-26T12:57:26.485Z,11.75
2019-06-26T12:59:57.934Z,11.28
2019-06-26T13:02:27.032Z,10.70
2019-06-26T13:04:56.537Z,9.60
2019-06-26T13:07:45.393Z,9.45
2019-06-26T13:10:15.307Z,10.28
2019-06-26T13:12:45.912Z,10.65
2019-06-26T13:15:16.065Z,10.60
2019-06-26T13:17:45.511Z,11.18
2019-06-26T13:20:15.130Z,11.53
2019-06-26T13:22:44.546Z,11.40
2019-06-26T13:25:15.951Z,10.20
2019-06-26T13:27:45.238Z,10.23
2019-06-26T13:30:15.229Z,11.38
2019-06-26T13:32:44.607Z,10.13
2019-06-26T13:35:14.120Z,10.85
2019-06-26T13:37:43.592Z,10.10
2019-06-26T13:40:13.326Z,10.53
2019-06-26T13:42:42.790Z,10.50
2019-06-26T13:45:15.059Z,8.93
2019-06-26T13:47:44.488Z,9.20
2019-06-26T13:50:14.168Z,8.78
2019-06-26T13:52:43.605Z,7.17
2019-06-26T13:55:13.214Z,7.42
2019-06-26T13:57:42.645Z,6.83
2019-06-26T14:00:12.854Z,5.75
2019-06-26T14:02:42.542Z,6.97
2019-06-26T14:05:12.415Z,6.75
2019-06-26T14:07:41.860Z,7.17
2019-06-26T14:10:19.407Z,7.28
2019-06-26T14:12:48.868Z,7.78
2019-06-26T14:15:18.553Z,8.13
2019-06-26T14:17:49.348Z,9.03
2019-06-26T14:20:19.141Z,8.68
2019-06-26T14:22:48.659Z,11.93
2019-06-26T14:25:18.248Z,9.63
2019-06-26T14:27:47.696Z,9.13
2019-06-26T14:30:17.775Z,10.30
2019-06-26T14:33:00.270Z,11.45
2019-06-26T14:35:29.799Z,12.18
2019-06-26T14:37:59.270Z,12.10
2019-06-26T14:40:28.719Z,11.95
2019-06-26T14:42:58.190Z,12.90
2019-06-26T14:45:27.682Z,12.68
2019-06-26T14:47:57.097Z,11.63
2019-06-26T14:50:27.629Z,12.35
2019-06-26T14:52:57.361Z,11.12
2019-06-26T14:55:26.878Z,10.08
2019-06-26T14:57:56.350Z,11.65
2019-06-26T15:00:25.861Z,12.07
2019-06-26T15:02:55.307Z,12.35
2019-06-26T15:05:26.314Z,11.48
2019-06-26T15:07:55.818Z,12.40
2019-06-26T15:10:25.244Z,12.05
2019-06-26T15:12:54.697Z,11.53
2019-06-26T15:15:24.206Z,11.08
2019-06-26T15:17:53.753Z,12.60
2019-06-26T15:20:23.277Z,12.23
2019-06-26T15:22:52.977Z,14.78
2019-06-26T15:25:22.492Z,13.25
2019-06-26T15:27:51.935Z,13.08
2019-06-26T15:30:23.264Z,13.13
2019-06-26T15:32:52.702Z,13.40
2019-06-26T15:35:23.423Z,14.87
2019-06-26T15:37:53.285Z,13.78
2019-06-26T15:40:22.798Z,14.33
2019-06-26T15:42:52.289Z,13.70
2019-06-26T15:45:21.851Z,12.82
2019-06-26T15:47:51.270Z,13.43
2019-06-26T15:50:20.783Z,13.70
2019-06-26T15:52:51.232Z,12.98
2019-06-26T15:55:20.679Z,14.13
2019-06-26T15:57:50.149Z,11.97
2019-06-26T16:00:19.868Z,10.70
2019-06-26T16:02:49.368Z,10.90
2019-06-26T16:05:18.826Z,11.57
2019-06-26T16:07:48.479Z,9.55
2019-06-26T16:10:19.000Z,8.48
2019-06-26T16:13:00.622Z,6.83
2019-06-26T16:15:30.060Z,6.67
2019-06-26T16:18:01.313Z,7.25
2019-06-26T16:20:30.968Z,7.40
2019-06-26T16:23:00.423Z,7.83
2019-06-26T16:25:29.884Z,6.70
2019-06-26T16:28:05.483Z,6.92
2019-06-26T16:30:30.729Z,7.67
2019-06-26T16:33:00.088Z,7.00
2019-06-26T16:35:29.539Z,6.75
2019-06-26T16:37:58.988Z,6.28
2019-06-26T16:40:28.462Z,5.50
2019-06-26T16:42:57.914Z,5.20
2019-06-26T16:45:27.358Z,5.60
2019-06-26T16:47:56.815Z,5.70
2019-06-26T16:50:26.244Z,4.78
2019-06-26T16:52:55.680Z,5.15
2019-06-26T16:55:25.379Z,4.33
2019-06-26T16:57:54.800Z,4.62
2019-06-26T17:00:24.302Z,4.12
2019-06-26T17:02:53.685Z,4.92
2019-06-26T17:05:23.169Z,4.47
2019-06-26T17:07:52.678Z,4.10
2019-06-26T17:10:22.209Z,4.15
2019-06-26T17:12:51.660Z,3.62
2019-06-26T17:15:21.275Z,4.00
2019-06-26T17:17:50.722Z,4.53
2019-06-26T17:20:20.464Z,4.22
2019-06-26T17:23:04.338Z,3.85
2019-06-26T17:25:21.254Z,4.42
2019-06-26T17:27:50.751Z,4.22
2019-06-26T17:30:21.099Z,3.58
2019-06-26T17:32:50.822Z,4.25
2019-06-26T17:35:20.267Z,3.80
2019-06-26T17:37:49.719Z,2.83
2019-06-26T17:40:19.325Z,3.47
2019-06-26T17:42:48.782Z,3.20
2019-06-26T17:45:18.373Z,3.52
2019-06-26T17:47:47.815Z,2.90
2019-06-26T17:50:20.600Z,3.15
2019-06-26T17:52:50.054Z,3.50
2019-06-26T17:55:19.577Z,3.12
2019-06-26T17:57:49.114Z,2.83
2019-06-26T18:00:21.631Z,2.50
2019-06-26T18:02:51.098Z,2.55
2019-06-26T18:05:20.571Z,2.60
2019-06-26T18:07:49.998Z,2.47
2019-06-26T18:10:22.481Z,2.27
2019-06-26T18:12:51.982Z,2.02
2019-06-26T18:15:22.718Z,1.60
2019-06-26T18:17:52.175Z,3.08
2019-06-26T18:20:21.617Z,1.80
2019-06-26T18:23:06.029Z,2.05
2019-06-26T18:25:23.247Z,1.90
2019-06-26T18:27:52.866Z,2.08
2019-06-26T18:30:22.867Z,2.22
2019-06-26T18:32:52.603Z,1.47
2019-06-26T18:35:22.038Z,2.12
2019-06-26T18:37:51.494Z,2.00
2019-06-26T18:40:20.972Z,1.80
2019-06-26T18:42:50.415Z,1.50
2019-06-26T18:45:20.017Z,1.52
2019-06-26T18:47:49.471Z,1.42
2019-06-26T18:50:19.226Z,1.90
2019-06-26T18:52:48.666Z,1.50
2019-06-26T18:55:18.188Z,1.45
2019-06-26T18:57:47.748Z,1.30
2019-06-26T19:00:18.574Z,1.67
2019-06-26T19:02:48.116Z,1.52
2019-06-26T19:05:17.710Z,1.30
2019-06-26T19:07:47.194Z,1.42
2019-06-26T19:10:16.979Z,1.25
2019-06-26T19:12:46.494Z,1.30
2019-06-26T19:15:17.248Z,1.90
2019-06-26T19:17:47.243Z,1.42
2019-06-26T19:20:18.572Z,1.47
2019-06-26T19:22:51.415Z,1.90
2019-06-26T19:25:21.091Z,2.20
2019-06-26T19:27:50.776Z,2.00
2019-06-26T19:30:20.508Z,1.37
2019-06-26T19:32:49.984Z,1.52
2019-06-26T19:35:20.380Z,1.85
2019-06-26T19:37:50.329Z,1.52
2019-06-26T19:40:20.130Z,1.80
2019-06-26T19:42:52.219Z,1.40
2019-06-26T19:45:23.028Z,1.45
2019-06-26T19:47:52.542Z,2.15
2019-06-26T19:50:23.624Z,1.67
2019-06-26T19:52:53.499Z,1.57
2019-06-26T19:55:23.413Z,1.92
2019-06-26T19:57:53.309Z,1.32
2019-06-26T20:00:23.230Z,1.60
2019-06-26T20:02:52.680Z,1.60
2019-06-26T20:05:23.887Z,1.35
2019-06-26T20:07:53.332Z,1.82
2019-06-26T20:10:22.771Z,1.82
2019-06-26T20:12:52.274Z,1.40
2019-06-26T20:15:21.686Z,1.42
2019-06-26T20:17:51.155Z,1.20
2019-06-26T20:20:20.604Z,1.30
2019-06-26T20:22:50.082Z,1.72
2019-06-26T20:25:19.907Z,1.40
2019-06-26T20:27:49.361Z,1.82
2019-06-26T20:30:21.907Z,1.98
2019-06-26T20:32:51.360Z,1.57
2019-06-26T20:35:20.799Z,1.90
2019-06-26T20:37:50.258Z,2.12
2019-06-26T20:40:19.834Z,1.47
2019-06-26T20:42:51.794Z,1.85
2019-06-26T20:45:21.310Z,1.67
2019-06-26T20:47:56.219Z,1.50
2019-06-26T20:50:45.015Z,1.65
2019-06-26T20:53:15.144Z,1.55
2019-06-26T20:55:44.616Z,1.70
2019-06-26T20:58:14.382Z,1.95
2019-06-26T21:00:43.795Z,1.52
2019-06-26T21:03:13.245Z,1.65
2019-06-26T21:05:42.776Z,1.50
2019-06-26T21:08:12.239Z,1.47
2019-06-26T21:10:41.779Z,1.80
2019-06-26T21:13:11.265Z,1.67
2019-06-26T21:15:40.764Z,1.55
2019-06-26T21:18:12.630Z,1.47
2019-06-26T21:20:42.671Z,1.47
2019-06-26T21:23:18.458Z,2.22
2019-06-26T21:25:43.220Z,2.15
2019-06-26T21:28:12.643Z,1.45
2019-06-26T21:30:42.062Z,1.50
2019-06-26T21:33:11.451Z,1.67
2019-06-26T21:35:40.871Z,1.30
2019-06-26T21:38:10.305Z,1.50
2019-06-26T21:40:40.804Z,1.32
2019-06-26T21:43:10.215Z,1.55
2019-06-26T21:45:39.689Z,2.15
2019-06-26T21:48:10.619Z,1.70
2019-06-26T21:50:39.977Z,1.57
2019-06-26T21:53:11.204Z,1.62
2019-06-26T21:55:42.098Z,1.42
2019-06-26T21:58:29.504Z,1.42
2019-06-26T22:01:17.117Z,1.67
2019-06-26T22:04:04.546Z,0.80
2019-06-26T22:06:36.110Z,1.57
2019-06-26T22:09:08.305Z,1.40
2019-06-26T22:11:39.373Z,2.08
2019-06-26T22:14:08.912Z,1.55
2019-06-26T22:16:38.505Z,1.72
2019-06-26T22:19:07.996Z,1.30
2019-06-26T22:21:37.629Z,2.47
2019-06-26T22:24:07.090Z,1.82
2019-06-26T22:26:37.872Z,1.15
2019-06-26T22:29:09.722Z,1.50
2019-06-26T22:31:39.086Z,1.27
2019-06-26T22:34:08.441Z,1.40
2019-06-26T22:36:37.881Z,1.50
2019-06-26T22:39:09.991Z,2.08
2019-06-26T22:41:39.417Z,1.85
2019-06-26T22:44:08.832Z,1.47
2019-06-26T22:46:38.248Z,1.65
2019-06-26T22:49:07.718Z,1.70
2019-06-26T22:51:40.673Z,1.62
2019-06-26T22:54:11.914Z,1.52
2019-06-26T22:56:43.009Z,2.17
2019-06-26T22:59:12.375Z,1.45
2019-06-26T23:01:47.247Z,1.82
2019-06-26T23:04:20.221Z,1.30
2019-06-26T23:06:49.628Z,2.02
2019-06-26T23:09:18.995Z,1.60
2019-06-26T23:11:50.784Z,1.72
2019-06-26T23:14:20.289Z,1.70
2019-06-26T23:16:49.699Z,1.50
2019-06-26T23:19:19.349Z,1.80
2019-06-26T23:21:48.813Z,1.30
2019-06-26T23:24:18.228Z,2.15
2019-06-26T23:26:47.671Z,2.08
2019-06-26T23:29:17.083Z,1.70
2019-06-26T23:31:46.498Z,1.92
2019-06-26T23:34:21.925Z,1.82
2019-06-26T23:36:51.951Z,1.25
2019-06-26T23:39:22.857Z,2.40
2019-06-26T23:41:52.203Z,1.65
2019-06-26T23:44:21.542Z,1.98
2019-06-26T23:46:51.036Z,1.87
2019-06-26T23:49:20.552Z,2.05
2019-06-26T23:51:49.973Z,1.85
2019-06-26T23:54:23.710Z,1.77
2019-06-26T23:59:28.675Z,2.20
